createdAt,value
2023-01-13T00:01:46.871Z,101019.28
2023-01-13T00:08:35.865Z,101019.03
2023-01-13T00:11:43.896Z,101016.31
2023-01-13T00:15:27.963Z,101017.09
2023-01-13T00:18:30.602Z,101014.41
2023-01-13T00:21:44.865Z,101016.91
2023-01-13T00:28:39.881Z,101000.25
2023-01-13T00:31:41.714Z,101003.66
2023-01-13T00:35:03.515Z,101002.66
2023-01-13T00:38:42.861Z,100994.66
2023-01-13T00:41:44.570Z,100999.91
2023-01-13T00:48:35.973Z,101006.87
2023-01-13T00:51:52.886Z,101012.97
2023-01-13T00:58:37.880Z,101000.72
2023-01-13T01:01:47.082Z,101000.00
2023-01-13T01:08:37.213Z,100995.44
2023-01-13T01:11:51.878Z,100996.34
2023-01-13T01:15:28.762Z,100998.97
2023-01-13T01:18:47.897Z,100988.50
2023-01-13T01:21:55.920Z,100988.50
2023-01-13T01:25:25.883Z,100987.53
2023-01-13T01:28:28.410Z,100993.59
2023-01-13T01:31:42.924Z,100932.78
2023-01-13T01:38:27.939Z,100972.44
2023-01-13T01:41:43.959Z,100977.72
2023-01-13T01:45:35.872Z,100970.66
2023-01-13T01:48:41.215Z,100931.72
2023-01-13T01:52:08.890Z,100974.09
2023-01-13T01:55:31.944Z,100960.13
2023-01-13T01:58:53.913Z,100923.00
2023-01-13T02:02:03.128Z,100968.81
2023-01-13T02:05:25.854Z,100960.97
2023-01-13T02:08:36.866Z,100948.69
2023-01-13T02:11:44.883Z,100919.56
2023-01-13T02:15:33.913Z,100906.34
2023-01-13T02:18:53.931Z,100952.44
2023-01-13T02:22:25.886Z,100949.88
2023-01-13T02:25:54.971Z,100945.56
2023-01-13T02:29:33.327Z,100948.34
2023-01-13T02:33:17.917Z,100942.28
2023-01-13T02:36:43.956Z,100922.19
2023-01-13T02:40:12.871Z,100941.59
2023-01-13T02:43:31.917Z,100940.62
2023-01-13T02:47:00.381Z,100938.87
2023-01-13T02:50:19.867Z,100938.87
2023-01-13T02:53:34.543Z,100934.50
2023-01-13T02:56:48.871Z,100937.12
2023-01-13T02:59:57.848Z,100924.81
2023-01-13T03:03:14.928Z,100931.78
2023-01-13T03:06:35.539Z,100871.94
2023-01-13T03:09:59.860Z,100921.28
2023-01-13T03:13:21.103Z,100919.53
2023-01-13T03:17:05.893Z,100913.31
2023-01-13T03:20:34.901Z,100825.22
2023-01-13T03:28:02.658Z,100911.66
2023-01-13T03:31:22.004Z,100911.72
2023-01-13T03:35:25.579Z,100913.41
2023-01-13T03:39:15.940Z,100896.81
2023-01-13T03:42:23.269Z,100905.66
2023-01-13T03:45:42.139Z,100901.31
2023-01-13T03:52:45.942Z,100894.37
2023-01-13T03:56:13.928Z,100895.34
2023-01-13T03:59:26.835Z,100898.94
2023-01-13T04:02:46.970Z,100884.09
2023-01-13T04:06:10.929Z,100894.66
2023-01-13T04:09:33.282Z,100899.13
2023-01-13T04:12:58.919Z,100894.81
2023-01-13T04:16:06.992Z,100900.06
2023-01-13T04:19:15.702Z,100898.34
2023-01-13T04:22:29.973Z,100895.75
2023-01-13T04:25:32.266Z,100894.03
2023-01-13T04:28:46.906Z,100903.69
2023-01-13T04:31:48.806Z,100874.59
2023-01-13T04:35:30.957Z,100904.59
2023-01-13T04:42:30.934Z,100922.16
2023-01-13T04:45:45.902Z,100906.41
2023-01-13T04:48:54.517Z,100910.78
2023-01-13T04:52:02.901Z,100905.56
2023-01-13T04:55:26.746Z,100841.13
2023-01-13T04:58:41.992Z,100903.66
2023-01-13T05:01:50.039Z,100905.41
2023-01-13T05:05:30.961Z,100866.56
2023-01-13T05:08:45.922Z,100901.78
2023-01-13T05:11:47.704Z,100914.09
2023-01-13T05:15:32.992Z,100908.78
2023-01-13T05:18:41.941Z,100914.91
2023-01-13T05:21:56.903Z,100918.50
2023-01-13T05:25:22.662Z,100853.22
2023-01-13T05:28:41.923Z,100911.41
2023-01-13T05:31:56.911Z,100925.44
2023-01-13T05:38:57.928Z,100930.75
2023-01-13T05:41:59.606Z,100920.12
2023-01-13T05:45:25.683Z,100923.59
2023-01-13T05:48:37.953Z,100918.28
2023-01-13T05:55:46.953Z,100933.28
2023-01-13T05:59:01.943Z,100876.00
2023-01-13T06:02:16.933Z,100922.78
2023-01-13T06:09:14.046Z,100886.53
2023-01-13T06:12:22.577Z,100929.78
2023-01-13T06:15:49.992Z,100902.44
2023-01-13T06:19:04.993Z,100919.25
2023-01-13T06:22:31.959Z,100926.34
2023-01-13T06:25:44.517Z,100881.25
2023-01-13T06:28:58.958Z,100932.37
2023-01-13T06:32:11.995Z,100927.91
2023-01-13T06:35:37.940Z,100931.34
2023-01-13T06:39:05.131Z,100931.31
2023-01-13T06:42:07.312Z,100938.31
2023-01-13T07:24:14.049Z,100948.87
2023-01-13T07:27:35.940Z,100947.34
2023-01-13T07:35:22.992Z,100958.87
2023-01-13T07:55:01.270Z,100968.84
2023-01-13T08:06:52.940Z,100976.25
2023-01-13T08:11:07.249Z,100983.31
2023-01-13T08:14:29.081Z,100992.09
2023-01-13T08:17:42.884Z,100987.69
2023-01-13T08:21:11.360Z,100989.44
2023-01-13T08:24:16.212Z,100991.12
2023-01-13T08:35:45.805Z,101002.53
2023-01-13T08:39:19.015Z,100991.22
2023-01-13T08:42:30.065Z,101004.31
2023-01-13T08:45:42.249Z,101003.44
2023-01-13T09:01:51.192Z,101007.66
2023-01-13T09:20:53.373Z,101019.69
2023-01-13T09:28:28.122Z,101017.88
2023-01-13T09:32:37.200Z,101006.37
2023-01-13T09:48:12.252Z,100999.72
2023-01-13T09:51:46.264Z,100990.97
2023-01-13T09:55:12.561Z,101000.31
2023-01-13T10:10:53.343Z,100986.59
2023-01-13T10:38:09.085Z,100992.75
2023-01-13T10:45:56.982Z,100984.06
2023-01-13T10:53:34.098Z,100911.22
2023-01-13T10:57:29.026Z,100967.50
2023-01-13T11:19:38.044Z,100931.84
2023-01-13T11:31:43.223Z,100828.78
2023-01-13T11:35:49.427Z,100914.25
2023-01-13T11:47:44.019Z,100902.84
2023-01-13T12:06:57.139Z,100879.31
2023-01-13T12:22:39.706Z,100831.13
2023-01-13T12:26:18.031Z,100825.91
2023-01-13T12:29:41.060Z,100824.91
2023-01-13T12:32:55.004Z,100827.56
2023-01-13T12:36:48.223Z,100821.47
2023-01-13T12:52:22.139Z,100842.62
2023-01-13T12:59:37.223Z,100780.31
2023-01-13T13:03:34.947Z,100833.94
2023-01-13T13:06:51.397Z,100732.84
2023-01-13T13:10:31.606Z,100830.44
2023-01-13T13:18:21.473Z,100836.66
2023-01-13T13:22:17.174Z,100834.88
2023-01-13T13:25:35.638Z,100850.69
2023-01-13T13:29:05.209Z,100853.34
2023-01-13T13:36:49.613Z,100839.31
2023-01-13T13:40:04.039Z,100842.88
2023-01-13T13:43:28.365Z,100783.91
2023-01-13T13:46:51.780Z,100844.66
2023-01-13T13:50:15.778Z,100823.56
2023-01-13T13:57:40.024Z,100850.81
2023-01-13T14:00:56.226Z,100839.38
2023-01-13T14:12:23.236Z,100864.94
2023-01-13T14:16:08.762Z,100859.66
2023-01-13T14:19:52.518Z,100841.19
2023-01-13T14:23:31.314Z,100855.28
2023-01-13T14:26:50.796Z,100865.81
2023-01-13T14:42:04.971Z,100859.69
2023-01-13T14:52:29.977Z,100864.94
2023-01-13T15:00:06.031Z,100862.31
2023-01-13T15:07:38.970Z,100784.91
2023-01-13T15:11:07.789Z,100870.19
2023-01-13T15:19:00.944Z,100874.56
2023-01-13T15:22:28.627Z,100858.72
2023-01-13T15:25:52.977Z,100776.94
2023-01-13T15:33:02.182Z,100853.47
2023-01-13T15:36:14.124Z,100848.19
2023-01-13T15:39:47.951Z,100862.25
2023-01-13T15:42:59.613Z,100856.97
2023-01-13T15:46:51.103Z,100832.34
2023-01-13T15:50:03.588Z,100870.16
2023-01-13T15:53:14.532Z,100860.50
2023-01-13T15:56:31.991Z,100791.88
2023-01-13T15:59:41.069Z,100867.50
2023-01-13T16:02:57.015Z,100881.59
2023-01-13T16:06:06.464Z,100885.13
2023-01-13T16:09:28.256Z,100877.22
2023-01-13T16:13:02.259Z,100879.00
2023-01-13T16:16:40.988Z,100879.84
2023-01-13T16:32:00.403Z,100875.47
2023-01-13T16:36:10.401Z,100878.09
2023-01-13T16:39:38.180Z,100886.88
2023-01-13T16:46:52.267Z,100856.16
2023-01-13T16:50:35.075Z,100872.00
2023-01-13T16:57:42.317Z,100865.84
2023-01-13T17:00:55.559Z,100851.78
2023-01-13T17:11:59.568Z,100861.44
2023-01-13T17:15:54.196Z,100864.06
2023-01-13T17:18:58.448Z,100787.56
2023-01-13T17:22:13.180Z,100858.78
2023-01-13T17:25:46.077Z,100860.53
2023-01-13T17:28:56.541Z,100857.87
2023-01-13T17:32:13.318Z,100869.34
2023-01-13T17:35:43.983Z,100867.59
2023-01-13T17:39:08.366Z,100863.16
2023-01-13T17:42:24.649Z,100872.84
2023-01-13T17:45:56.517Z,100881.63
2023-01-13T17:49:20.044Z,100882.50
2023-01-13T17:52:31.206Z,100842.94
2023-01-13T17:55:59.065Z,100888.69
2023-01-13T18:06:42.004Z,100895.75
2023-01-13T18:18:13.913Z,100901.03
2023-01-13T18:21:39.064Z,100900.16
2023-01-13T18:26:03.723Z,100898.41
2023-01-13T18:29:28.158Z,100920.41
2023-01-13T18:33:21.464Z,100914.28
2023-01-13T18:59:49.145Z,100913.38
2023-01-13T19:23:37.214Z,100923.91
2023-01-13T19:32:33.472Z,100934.50
2023-01-13T19:36:46.730Z,100935.37
2023-01-13T19:40:48.208Z,100942.41
2023-01-13T20:20:29.176Z,100995.97
2023-01-13T20:48:19.239Z,100973.06
2023-01-13T20:52:25.797Z,100967.75
2023-01-13T20:56:00.801Z,100968.66
2023-01-13T21:11:56.632Z,100981.84
2023-01-13T21:15:57.559Z,100974.81
2023-01-13T21:19:40.399Z,100981.84
2023-01-13T21:23:30.431Z,100969.56
2023-01-13T21:50:26.056Z,100965.16
2023-01-13T21:53:28.188Z,100967.78
2023-01-13T21:56:45.203Z,100964.28
2023-01-13T22:00:02.126Z,100963.41
2023-01-13T22:03:14.485Z,100938.81
2023-01-13T22:06:46.155Z,100944.06
2023-01-13T22:10:05.878Z,100929.16
2023-01-13T22:13:24.176Z,100946.72
2023-01-13T22:16:30.019Z,100952.00
2023-01-13T22:20:05.204Z,100967.78
2023-01-13T22:23:09.211Z,100985.38
2023-01-13T22:26:29.305Z,100988.03
2023-01-13T22:30:00.274Z,101009.16
2023-01-13T22:33:09.103Z,101026.72
2023-01-13T22:36:33.029Z,101021.47
2023-01-13T22:39:43.737Z,101033.78
2023-01-13T22:43:39.213Z,101025.84
2023-01-13T22:47:01.613Z,101045.22
2023-01-13T22:50:23.190Z,101046.09
2023-01-13T22:53:25.235Z,101048.72
2023-01-13T23:00:12.386Z,101046.97
2023-01-13T23:03:32.358Z,101044.38
2023-01-13T23:06:48.205Z,101046.13
2023-01-13T23:09:50.445Z,101039.06
2023-01-13T23:13:24.179Z,101038.19
2023-01-13T23:16:43.201Z,101013.53
2023-01-13T23:20:07.363Z,101007.38
2023-01-13T23:23:22.255Z,100971.31
2023-01-13T23:26:24.287Z,100947.56
2023-01-13T23:29:39.187Z,100929.06
2023-01-13T23:32:41.296Z,100971.31
2023-01-13T23:36:08.114Z,100957.22
2023-01-13T23:39:10.136Z,100973.91
2023-01-13T23:42:28.156Z,100967.78
2023-01-13T23:45:50.756Z,100943.97
2023-01-13T23:49:15.738Z,100977.44
2023-01-13T23:52:37.417Z,100981.84
2023-01-13T23:59:55.494Z,100971.25
